Time;durP1;ratioP1;P1;durP2;ratioP2;P2;SDS_P1;SDS_P2;PMS_P1;PMS_P2;Temp;Humidity;BMP_temperature;BMP_pressure;BME280_temperature;BME280_humidity;BME280_pressure;Samples;Min_cycle;Max_cycle;Signal;HPM_P1;HPM_P2
2022/03/13 00:00:44;;;;;;;7.50;4.03;;;;;;;-2.96;49.80;101734.98;1819808;78;20907;-72
2022/03/13 00:03:11;;;;;;;4.47;3.20;;;;;;;-2.95;49.47;101730.31;1817109;78;21417;-73
2022/03/13 00:05:41;;;;;;;7.62;3.20;;;;;;;-2.95;49.34;101732.88;1819676;78;21597;-72
2022/03/13 00:08:32;;;;;;;11.83;4.75;;;;;;;-2.95;49.61;101725.18;1819568;78;20924;-74
2022/03/13 00:11:08;;;;;;;7.83;4.30;;;;;;;-2.97;49.28;101729.42;1818731;78;20919;-72
2022/03/13 00:13:40;;;;;;;6.78;3.92;;;;;;;-2.93;49.19;101732.05;1809418;79;26759;-72
2022/03/13 00:16:09;;;;;;;7.67;4.08;;;;;;;-2.96;49.56;101728.17;1809443;79;20943;-73
2022/03/13 00:18:44;;;;;;;8.63;4.12;;;;;;;-3.00;49.27;101723.84;1809629;79;21905;-72
2022/03/13 00:21:07;;;;;;;10.48;4.65;;;;;;;-3.00;49.90;101726.80;1809194;79;20877;-73
2022/03/13 00:23:35;;;;;;;7.67;3.98;;;;;;;-3.01;49.93;101724.66;1809453;79;20911;-74
2022/03/13 00:26:02;;;;;;;6.40;4.20;;;;;;;-3.04;48.61;101727.63;1809355;78;20975;-73
2022/03/13 00:28:31;;;;;;;5.25;3.60;;;;;;;-3.07;49.54;101725.00;1809326;79;20936;-73
2022/03/13 00:31:01;;;;;;;9.45;4.97;;;;;;;-3.14;47.56;101723.62;1809205;79;21654;-73
2022/03/13 00:33:28;;;;;;;6.90;3.35;;;;;;;-3.18;48.64;101724.45;1809730;79;21492;-72
2022/03/13 00:35:55;;;;;;;9.00;4.97;;;;;;;-3.18;47.77;101724.45;1809302;78;20885;-72
2022/03/13 00:38:25;;;;;;;5.55;3.25;;;;;;;-3.19;48.21;101720.56;1809225;79;20951;-73
2022/03/13 00:40:53;;;;;;;8.00;4.33;;;;;;;-3.15;48.05;101722.34;1809356;79;20915;-72
2022/03/13 00:43:21;;;;;;;5.40;3.30;;;;;;;-3.13;49.05;101724.51;1809320;78;21116;-73
2022/03/13 00:45:47;;;;;;;6.75;4.05;;;;;;;-3.08;49.39;101723.29;1809466;78;21008;-73
2022/03/13 00:48:15;;;;;;;7.90;3.92;;;;;;;-3.05;49.35;101722.89;1809357;79;20857;-73
2022/03/13 00:50:42;;;;;;;5.47;4.00;;;;;;;-3.08;49.23;101721.58;1809246;79;21477;-72
2022/03/13 00:53:09;;;;;;;6.97;3.95;;;;;;;-3.06;49.66;101727.59;1809581;78;20931;-72
2022/03/13 00:55:36;;;;;;;6.47;3.60;;;;;;;-3.04;48.35;101725.06;1809403;79;22206;-73
2022/03/13 00:58:04;;;;;;;4.92;3.87;;;;;;;-3.00;48.77;101728.09;1809173;79;20876;-74
2022/03/13 01:00:33;;;;;;;8.83;4.42;;;;;;;-2.94;48.64;101732.02;1809430;78;20992;-72
2022/03/13 01:03:00;;;;;;;8.08;4.30;;;;;;;-2.90;48.67;101729.94;1809388;79;20924;-73
2022/03/13 01:05:27;;;;;;;9.88;5.20;;;;;;;-2.86;49.24;101733.00;1809298;79;20915;-73
2022/03/13 01:07:56;;;;;;;13.90;5.53;;;;;;;-2.86;48.74;101735.99;1809277;79;21065;-72
2022/03/13 01:10:24;;;;;;;8.73;4.10;;;;;;;-2.88;48.90;101733.40;1809279;78;20862;-72
2022/03/13 01:12:52;;;;;;;6.97;4.15;;;;;;;-2.85;48.71;101736.42;1809215;79;20869;-73
2022/03/13 01:15:20;;;;;;;7.85;5.03;;;;;;;-2.82;48.89;101739.05;1809248;79;20945;-72
2022/03/13 01:17:49;;;;;;;8.08;4.22;;;;;;;-2.80;49.33;101742.07;1809433;79;21501;-72
2022/03/13 01:20:21;;;;;;;7.20;4.58;;;;;;;-2.80;49.11;101744.64;1809478;79;22431;-73
2022/03/13 01:22:48;;;;;;;5.83;3.90;;;;;;;-2.83;49.00;101742.44;1809253;79;21441;-73
2022/03/13 01:25:16;;;;;;;12.18;4.92;;;;;;;-2.86;48.97;101748.40;1809210;79;20877;-73
2022/03/13 01:27:44;;;;;;;7.72;4.62;;;;;;;-2.85;49.28;101750.53;1809456;79;20841;-72
2022/03/13 01:30:14;;;;;;;10.23;4.90;;;;;;;-2.84;49.41;101754.42;1809283;78;20967;-72
2022/03/13 01:32:42;;;;;;;10.55;4.85;;;;;;;-2.83;49.23;101755.27;1809283;78;21146;-74
2022/03/13 01:35:10;;;;;;;9.93;5.12;;;;;;;-2.84;49.47;101761.27;1809318;79;20974;-72
2022/03/13 01:37:43;;;;;;;11.10;5.00;;;;;;;-2.83;49.41;101756.55;1809232;78;20944;-73
2022/03/13 01:40:13;;;;;;;7.67;4.25;;;;;;;-2.83;49.48;101757.84;1808859;79;20924;-72
2022/03/13 01:42:44;;;;;;;9.55;5.05;;;;;;;-2.84;49.11;101754.84;1809325;79;20978;-74
2022/03/13 01:45:15;;;;;;;7.90;5.05;;;;;;;-2.86;48.75;101756.53;1809344;78;20904;-74
2022/03/13 01:47:42;;;;;;;7.28;4.50;;;;;;;-2.93;48.92;101761.99;1809313;79;20849;-74
2022/03/13 01:50:12;;;;;;;7.42;4.92;;;;;;;-2.95;48.82;101761.11;1809307;78;20973;-72
2022/03/13 01:52:46;;;;;;;8.20;4.53;;;;;;;-2.93;48.92;101763.28;1809735;79;20931;-74
2022/03/13 01:55:13;;;;;;;8.88;4.05;;;;;;;-2.95;49.16;101765.81;1809424;78;20931;-71
2022/03/13 01:57:41;;;;;;;8.85;5.10;;;;;;;-2.95;49.25;101762.39;1809322;79;21226;-73
2022/03/13 02:00:10;;;;;;;10.95;5.90;;;;;;;-2.94;49.10;101766.67;1809289;79;21401;-74
2022/03/13 02:02:46;;;;;;;10.10;5.97;;;;;;;-2.93;48.74;101763.28;1809372;79;20837;-73
2022/03/13 02:05:33;;;;;;;12.15;5.17;;;;;;;-2.90;48.63;101763.73;1809273;78;20892;-72
2022/03/13 02:08:09;;;;;;;13.40;5.62;;;;;;;-2.91;48.33;101769.30;1809205;79;20967;-73
2022/03/13 02:10:37;;;;;;;12.03;5.55;;;;;;;-2.93;48.51;101769.70;1809332;79;21692;-73
2022/03/13 02:13:06;;;;;;;9.40;5.70;;;;;;;-2.98;48.56;101776.05;1816029;78;20872;-72
2022/03/13 02:15:34;;;;;;;10.93;6.60;;;;;;;-3.03;48.62;101775.09;1819545;79;20930;-73
2022/03/13 02:18:03;;;;;;;11.53;5.45;;;;;;;-3.06;48.86;101780.20;1819336;78;20911;-74
2022/03/13 02:20:42;;;;;;;17.30;6.78;;;;;;;-3.07;48.80;101777.59;1819597;79;21421;-73
2022/03/13 02:23:20;;;;;;;18.52;8.85;;;;;;;-3.07;48.85;101772.03;1819621;79;21148;-72
2022/03/13 02:25:52;;;;;;;13.90;7.60;;;;;;;-3.05;48.88;101790.03;1819546;78;22453;-72
2022/03/13 02:28:22;;;;;;;12.47;6.83;;;;;;;-3.05;48.50;101783.19;1819934;78;21425;-73
2022/03/13 02:30:52;;;;;;;13.20;7.05;;;;;;;-3.04;48.21;101784.08;1819549;78;20928;-73
2022/03/13 02:33:20;;;;;;;14.00;6.95;;;;;;;-3.05;48.03;101780.62;1820146;78;20922;-73
2022/03/13 02:35:58;;;;;;;14.28;5.97;;;;;;;-3.05;47.98;101781.05;1819780;78;21158;-73
2022/03/13 02:38:27;;;;;;;13.28;7.37;;;;;;;-3.06;47.73;101781.48;1819664;78;20832;-73
2022/03/13 02:40:55;;;;;;;11.03;6.45;;;;;;;-3.08;47.71;101781.02;1819737;78;20924;-73
2022/03/13 02:43:23;;;;;;;12.18;7.28;;;;;;;-3.10;47.80;101774.56;1819662;78;20864;-73
2022/03/13 02:45:52;;;;;;;13.03;7.33;;;;;;;-3.08;48.22;101778.45;1819825;78;20962;-72
2022/03/13 02:48:19;;;;;;;12.53;7.33;;;;;;;-3.05;48.55;101779.77;1819738;78;21143;-72
2022/03/13 02:50:47;;;;;;;13.05;6.47;;;;;;;-3.14;48.87;101785.19;1819604;78;20928;-74
2022/03/13 02:53:16;;;;;;;13.60;7.55;;;;;;;-3.19;49.39;101788.55;1819718;78;21377;-72
2022/03/13 02:55:45;;;;;;;16.23;8.35;;;;;;;-3.24;49.72;101780.78;1819757;78;20884;-73
2022/03/13 02:58:12;;;;;;;14.18;8.25;;;;;;;-3.23;50.12;101790.19;1820169;78;20868;-73
2022/03/13 03:00:52;;;;;;;21.42;9.05;;;;;;;-3.22;50.65;101792.36;1819780;78;21838;-73
2022/03/13 03:03:21;;;;;;;21.93;9.85;;;;;;;-3.23;51.00;101795.75;1819677;78;20868;-73
2022/03/13 03:05:49;;;;;;;14.68;8.20;;;;;;;-3.28;50.94;101795.67;1819909;78;21006;-73
2022/03/13 03:08:16;;;;;;;14.45;8.03;;;;;;;-3.30;51.23;101805.47;1819674;78;20891;-73
2022/03/13 03:10:45;;;;;;;16.50;8.98;;;;;;;-3.31;51.65;101813.98;1819842;78;21429;-73
2022/03/13 03:13:13;;;;;;;17.57;8.33;;;;;;;-3.36;52.00;101814.80;1823048;78;21169;-74
2022/03/13 03:15:41;;;;;;;13.95;7.67;;;;;;;-3.39;52.29;101819.00;1825391;78;20935;-73
2022/03/13 03:18:09;;;;;;;14.45;7.97;;;;;;;-3.42;52.20;101822.38;1825543;78;20912;-71
2022/03/13 03:20:38;;;;;;;14.40;7.92;;;;;;;-3.46;52.46;101823.59;1825370;78;20927;-74
2022/03/13 03:23:06;;;;;;;17.27;7.85;;;;;;;-3.48;52.74;101829.11;1825453;78;20907;-73
2022/03/13 03:25:33;;;;;;;13.58;8.00;;;;;;;-3.48;53.04;101836.38;1825532;78;21145;-72
2022/03/13 03:28:00;;;;;;;16.40;9.68;;;;;;;-3.47;53.29;101838.08;1825352;78;20892;-73
2022/03/13 03:30:29;;;;;;;13.98;8.73;;;;;;;-3.48;53.43;101841.50;1825502;78;20947;-74
2022/03/13 03:32:59;;;;;;;16.17;9.13;;;;;;;-3.49;53.59;101837.23;1825438;78;20922;-73
2022/03/13 03:35:26;;;;;;;13.25;8.18;;;;;;;-3.48;53.70;101839.36;1825614;78;20914;-72
2022/03/13 03:37:54;;;;;;;15.93;7.72;;;;;;;-3.50;53.80;101837.19;1825567;78;21146;-72
2022/03/13 03:40:28;;;;;;;12.20;7.45;;;;;;;-3.54;53.83;101840.10;1825300;78;20991;-73
2022/03/13 03:43:00;;;;;;;16.25;9.38;;;;;;;-3.58;53.59;101839.20;1825517;78;20970;-74
2022/03/13 03:45:27;;;;;;;17.35;8.35;;;;;;;-3.65;53.39;101839.05;1825436;78;21001;-73
2022/03/13 03:47:54;;;;;;;15.83;8.05;;;;;;;-3.71;53.34;101841.10;1825563;78;20860;-72
2022/03/13 03:50:21;;;;;;;13.65;7.92;;;;;;;-3.79;53.35;101843.51;1825831;78;21220;-73
2022/03/13 03:52:53;;;;;;;14.75;8.43;;;;;;;-3.79;53.69;101843.51;1825305;78;20974;-72
2022/03/13 03:55:18;;;;;;;16.80;8.08;;;;;;;-3.79;54.19;101842.22;1825258;78;21002;-72
2022/03/13 03:57:45;;;;;;;18.12;9.70;;;;;;;-3.77;54.38;101846.11;1825415;78;20896;-74
2022/03/13 04:00:14;;;;;;;10.85;7.97;;;;;;;-3.72;54.67;101851.31;1825575;78;20848;-74
2022/03/13 04:02:42;;;;;;;14.70;8.43;;;;;;;-3.71;54.76;101847.51;1825529;78;21212;-73
2022/03/13 04:05:10;;;;;;;20.52;9.78;;;;;;;-3.72;54.58;101843.20;1825453;78;20927;-73
2022/03/13 04:07:38;;;;;;;17.65;8.48;;;;;;;-3.73;54.66;101847.01;1825385;78;20963;-73
2022/03/13 04:10:07;;;;;;;17.60;8.63;;;;;;;-3.73;54.79;101858.15;1825364;78;20864;-72
2022/03/13 04:12:36;;;;;;;16.12;7.80;;;;;;;-3.71;54.78;101855.20;1822349;78;20905;-73
2022/03/13 04:15:05;;;;;;;17.45;8.58;;;;;;;-3.69;54.88;101867.63;1809420;78;21137;-74
2022/03/13 04:17:34;;;;;;;13.98;7.55;;;;;;;-3.65;54.91;101867.25;1809271;79;20900;-73
2022/03/13 04:20:03;;;;;;;15.43;7.28;;;;;;;-3.62;55.12;101870.74;1809422;79;20963;-73
2022/03/13 04:22:31;;;;;;;20.00;8.55;;;;;;;-3.57;55.25;101873.39;1809257;79;20982;-74
2022/03/13 04:24:58;;;;;;;15.28;9.78;;;;;;;-3.52;55.36;101879.45;1809451;79;21501;-74
2022/03/13 04:27:25;;;;;;;16.48;7.50;;;;;;;-3.49;55.25;101882.09;1809286;78;21620;-72
2022/03/13 04:29:52;;;;;;;14.95;7.50;;;;;;;-3.47;55.23;101878.25;1809362;79;20966;-73
2022/03/13 04:32:22;;;;;;;21.07;8.73;;;;;;;-3.45;54.86;101885.56;1809359;78;20905;-74
2022/03/13 04:34:49;;;;;;;14.38;8.65;;;;;;;-3.43;55.17;101889.02;1809302;79;20960;-73
2022/03/13 04:37:17;;;;;;;16.77;8.23;;;;;;;-3.41;55.16;101893.76;1809437;78;20869;-74
2022/03/13 04:39:44;;;;;;;18.87;10.03;;;;;;;-3.35;55.22;101893.88;1809323;78;21556;-73
2022/03/13 04:42:11;;;;;;;26.62;9.40;;;;;;;-3.29;55.09;101899.13;1809688;79;20849;-74
2022/03/13 04:44:38;;;;;;;14.20;8.75;;;;;;;-3.22;55.03;101895.82;1809404;79;21010;-74
2022/03/13 04:47:06;;;;;;;16.30;8.00;;;;;;;-3.15;55.38;101904.06;1809757;79;20888;-74
2022/03/13 04:49:33;;;;;;;24.70;11.33;;;;;;;-3.04;55.21;101899.11;1809413;79;20908;-73
2022/03/13 04:52:00;;;;;;;22.77;11.53;;;;;;;-2.90;54.83;101903.18;1809287;79;21405;-73
2022/03/13 04:54:28;;;;;;;28.15;14.58;;;;;;;-2.71;53.96;101903.06;1809259;79;21018;-73
2022/03/13 04:56:55;;;;;;;28.95;13.68;;;;;;;-2.41;53.04;101898.78;1809271;78;20868;-73
2022/03/13 04:59:22;;;;;;;30.37;15.25;;;;;;;-1.98;51.48;101901.05;1809376;79;20868;-73
2022/03/13 05:01:52;;;;;;;27.58;14.87;;;;;;;-1.32;49.81;101906.94;1809589;79;20971;-74
2022/03/13 05:04:19;;;;;;;15.75;9.35;;;;;;;-0.60;48.81;101910.12;1809312;79;21481;-72
2022/03/13 05:06:47;;;;;;;14.25;8.23;;;;;;;0.17;47.11;101907.94;1809236;79;20849;-74
2022/03/13 05:09:13;;;;;;;16.23;9.03;;;;;;;0.82;44.25;101909.84;1809275;79;20861;-73
2022/03/13 05:11:42;;;;;;;22.13;9.48;;;;;;;1.42;42.47;101916.30;1809315;78;20960;-75
2022/03/13 05:14:10;;;;;;;18.67;11.03;;;;;;;1.95;41.48;101915.72;1816157;78;21496;-75
2022/03/13 05:16:37;;;;;;;23.40;13.00;;;;;;;2.45;40.01;101923.71;1819681;78;21251;-73
2022/03/13 05:19:06;;;;;;;18.15;11.57;;;;;;;2.82;38.66;101923.47;1819534;78;20868;-72
2022/03/13 05:21:36;;;;;;;18.45;10.48;;;;;;;3.09;37.74;101926.73;1819594;78;20971;-73
2022/03/13 05:24:03;;;;;;;17.17;9.40;;;;;;;3.37;36.83;101922.19;1819906;78;20864;-72
2022/03/13 05:26:32;;;;;;;16.37;9.88;;;;;;;3.72;36.33;101927.48;1819568;78;21496;-72
2022/03/13 05:28:59;;;;;;;17.65;10.78;;;;;;;4.00;35.80;101929.75;1819680;78;21557;-73
2022/03/13 05:31:26;;;;;;;15.95;9.78;;;;;;;4.11;34.81;101923.58;1819895;78;20904;-76
2022/03/13 05:33:53;;;;;;;20.25;9.65;;;;;;;4.22;34.29;101939.45;1819633;78;20876;-73
2022/03/13 05:36:21;;;;;;;17.77;10.65;;;;;;;4.36;34.07;101938.41;1819633;78;20975;-74
2022/03/13 05:38:48;;;;;;;15.85;10.32;;;;;;;4.59;33.57;101936.38;1819566;78;20951;-75
2022/03/13 05:41:18;;;;;;;14.15;8.38;;;;;;;4.81;33.23;101940.39;1819691;78;21418;-74
2022/03/13 05:43:49;;;;;;;18.27;10.58;;;;;;;4.87;32.61;101940.30;1819523;78;20915;-75
2022/03/13 05:46:16;;;;;;;14.83;8.88;;;;;;;4.89;32.27;101941.55;1819572;78;20840;-75
2022/03/13 05:48:43;;;;;;;23.45;11.10;;;;;;;4.90;32.38;101942.84;1819575;78;21410;-74
2022/03/13 05:51:11;;;;;;;24.70;12.15;;;;;;;5.16;32.24;101945.50;1819643;78;20935;-74
2022/03/13 05:53:37;;;;;;;17.90;9.60;;;;;;;5.52;31.53;101941.41;1819828;78;21818;-73
2022/03/13 05:56:05;;;;;;;17.25;9.28;;;;;;;5.79;30.83;101943.94;1819662;78;21398;-73
2022/03/13 05:58:32;;;;;;;18.48;10.28;;;;;;;6.06;30.52;101946.08;1819506;78;20978;-74
2022/03/13 06:01:08;;;;;;;19.92;12.47;;;;;;;6.41;30.06;101953.18;1819479;78;21461;-73
2022/03/13 06:03:34;;;;;;;18.32;11.68;;;;;;;6.71;29.80;101952.09;1819619;78;20849;-75
2022/03/13 06:06:03;;;;;;;14.80;9.25;;;;;;;7.00;29.27;101952.72;1819799;78;21837;-74
2022/03/13 06:08:32;;;;;;;12.63;8.05;;;;;;;7.31;28.85;101957.20;1819508;78;21040;-73
2022/03/13 06:10:59;;;;;;;12.05;6.85;;;;;;;7.61;28.10;101952.97;1819495;78;21010;-72
2022/03/13 06:13:26;;;;;;;13.20;7.87;;;;;;;7.79;27.71;101960.30;1821023;78;20895;-74
2022/03/13 06:15:53;;;;;;;13.08;6.58;;;;;;;8.01;27.62;101964.95;1825346;78;20906;-74
2022/03/13 06:18:21;;;;;;;12.30;6.70;;;;;;;8.33;27.35;101972.33;1825424;78;21557;-74
2022/03/13 06:20:48;;;;;;;12.98;7.55;;;;;;;8.67;26.58;101969.16;1825287;78;20879;-73
2022/03/13 06:23:16;;;;;;;14.47;9.35;;;;;;;8.89;26.44;101959.33;1825306;78;20986;-74
2022/03/13 06:27:35;;;;;;;9.60;6.37;;;;;;;9.42;26.26;101965.89;1798590;79;22538;-74
2022/03/13 06:30:11;;;;;;;8.13;5.60;;;;;;;9.57;25.43;101971.53;1758373;81;21397;-74
2022/03/13 06:32:34;;;;;;;5.17;4.65;;;;;;;9.75;25.02;101969.13;1757753;81;21888;-73
2022/03/13 06:35:01;;;;;;;11.97;7.40;;;;;;;9.91;24.75;101972.05;1758265;81;20884;-73
2022/03/13 06:37:29;;;;;;;10.10;5.03;;;;;;;10.03;24.41;101974.71;1758645;80;21622;-72
2022/03/13 06:39:56;;;;;;;8.20;5.17;;;;;;;9.99;24.31;101972.26;1758651;81;21337;-73
2022/03/13 06:42:25;;;;;;;7.83;5.70;;;;;;;9.87;24.34;101974.41;1758279;80;20884;-73
2022/03/13 06:44:52;;;;;;;7.87;5.25;;;;;;;9.88;24.41;101980.50;1758267;81;21140;-73
2022/03/13 06:47:21;;;;;;;7.40;3.87;;;;;;;9.90;24.54;101979.98;1724797;83;20911;-73
2022/03/13 06:49:48;;;;;;;9.03;4.10;;;;;;;9.90;24.31;101982.61;1724796;82;20931;-73
2022/03/13 06:52:15;;;;;;;6.37;4.30;;;;;;;9.80;24.05;101983.37;1724695;83;20891;-74
2022/03/13 06:54:43;;;;;;;8.23;4.95;;;;;;;9.72;24.53;101987.58;1725132;83;20863;-74
2022/03/13 06:57:11;;;;;;;7.97;4.70;;;;;;;9.59;24.20;101996.76;1724724;83;21147;-74
2022/03/13 06:59:37;;;;;;;6.92;3.85;;;;;;;9.38;24.45;102003.55;1724962;83;21476;-75
2022/03/13 07:02:04;;;;;;;6.85;3.55;;;;;;;9.20;24.84;101997.61;1724826;83;21460;-74
2022/03/13 07:04:32;;;;;;;6.37;3.83;;;;;;;8.99;24.91;102001.31;1724643;83;21041;-74
2022/03/13 07:06:59;;;;;;;5.53;3.22;;;;;;;8.70;25.06;102008.74;1725076;83;20955;-74
2022/03/13 07:09:26;;;;;;;8.13;3.00;;;;;;;8.37;25.28;102003.55;1724690;83;21226;-75
2022/03/13 07:11:54;;;;;;;5.15;3.83;;;;;;;8.04;26.01;102004.89;1724664;83;20915;-74
2022/03/13 07:14:21;;;;;;;4.92;3.65;;;;;;;7.90;26.41;102008.34;1724798;83;20927;-73
2022/03/13 07:16:50;;;;;;;6.58;4.75;;;;;;;7.94;26.92;102009.09;1724788;83;20994;-73
2022/03/13 07:19:18;;;;;;;5.17;3.40;;;;;;;8.03;26.74;102010.18;1724830;83;20927;-74
2022/03/13 07:21:45;;;;;;;5.75;3.92;;;;;;;7.98;26.52;102015.53;1725059;82;21221;-73
2022/03/13 07:24:12;;;;;;;8.43;4.08;;;;;;;7.86;27.08;102014.53;1724707;83;20860;-75
2022/03/13 07:26:39;;;;;;;6.10;4.00;;;;;;;7.82;27.17;102014.20;1717051;83;20904;-73
2022/03/13 07:29:06;;;;;;;7.35;3.20;;;;;;;7.65;27.39;102022.48;1709388;82;20935;-74
2022/03/13 07:31:35;;;;;;;7.03;3.83;;;;;;;7.59;27.73;102018.72;1709331;82;21094;-72
2022/03/13 07:34:02;;;;;;;4.67;3.47;;;;;;;7.52;27.78;102019.31;1709435;84;21634;-74
2022/03/13 07:36:30;;;;;;;6.78;4.35;;;;;;;7.54;28.07;102025.81;1709307;84;20876;-73
2022/03/13 07:38:57;;;;;;;8.75;4.25;;;;;;;7.71;28.31;102031.44;1708822;84;20908;-76
2022/03/13 07:41:26;;;;;;;6.45;4.20;;;;;;;7.79;27.65;102037.34;1708775;84;20924;-73
2022/03/13 07:43:53;;;;;;;7.55;4.37;;;;;;;7.75;27.76;102033.54;1708912;84;20904;-74
2022/03/13 07:46:20;;;;;;;7.80;4.67;;;;;;;7.76;27.71;102039.16;1708880;82;21123;-74
2022/03/13 07:48:47;;;;;;;8.38;4.20;;;;;;;7.85;27.89;102042.87;1708987;84;20901;-74
2022/03/13 07:51:15;;;;;;;5.62;3.87;;;;;;;8.05;27.67;102039.73;1708778;84;20892;-76
2022/03/13 07:53:45;;;;;;;10.20;5.55;;;;;;;8.23;27.14;102044.45;1744598;80;20929;-74
2022/03/13 07:56:13;;;;;;;13.93;5.65;;;;;;;8.40;26.95;102047.92;1744545;82;20924;-74
2022/03/13 07:58:40;;;;;;;7.90;5.25;;;;;;;8.60;27.09;102046.52;1744649;82;21242;-75
2022/03/13 08:01:07;;;;;;;13.65;5.40;;;;;;;8.74;26.89;102048.30;1744492;82;21023;-74
2022/03/13 08:03:38;;;;;;;11.88;5.33;;;;;;;8.74;26.92;102045.67;1744617;82;20932;-74
2022/03/13 08:06:05;;;;;;;9.15;5.47;;;;;;;8.91;27.04;102049.08;1744544;81;20862;-73
2022/03/13 08:08:32;;;;;;;18.35;7.00;;;;;;;9.16;27.06;102048.33;1744663;81;21022;-75
2022/03/13 08:11:00;;;;;;;7.40;5.40;;;;;;;9.40;26.56;102052.79;1744564;81;21250;-75
2022/03/13 08:13:30;;;;;;;10.18;5.83;;;;;;;9.66;26.90;102049.33;1744588;81;21371;-75
2022/03/13 08:15:59;;;;;;;16.45;6.12;;;;;;;10.02;26.46;102052.07;1744551;81;20959;-76
2022/03/13 08:18:27;;;;;;;9.43;4.97;;;;;;;10.38;26.24;102051.25;1708803;84;20932;-76
2022/03/13 08:20:55;;;;;;;7.60;4.42;;;;;;;10.70;25.63;102049.23;1709137;84;20896;-75
2022/03/13 08:23:22;;;;;;;11.38;4.42;;;;;;;10.93;25.04;102050.50;1708521;84;22192;-75
2022/03/13 08:25:49;;;;;;;7.78;4.45;;;;;;;11.26;25.18;102055.36;1708675;83;21489;-74
2022/03/13 08:28:17;;;;;;;6.60;4.05;;;;;;;11.60;24.76;102053.98;1708770;84;21007;-76
2022/03/13 08:30:44;;;;;;;6.30;3.50;;;;;;;11.82;24.16;102055.27;1708749;82;20943;-76
2022/03/13 08:33:12;;;;;;;10.98;4.60;;;;;;;12.06;23.67;102062.60;1708570;82;20896;-75
2022/03/13 08:35:39;;;;;;;7.50;3.77;;;;;;;12.28;23.84;102058.58;1708770;84;21255;-76
2022/03/13 08:38:07;;;;;;;9.55;4.50;;;;;;;12.39;23.29;102059.42;1708878;84;21022;-76
2022/03/13 08:40:35;;;;;;;10.85;3.67;;;;;;;12.39;23.22;102056.33;1708843;84;20923;-76
2022/03/13 08:43:02;;;;;;;8.65;3.85;;;;;;;12.64;23.20;102055.22;1708789;82;20900;-75
2022/03/13 08:45:29;;;;;;;4.53;3.12;;;;;;;12.93;22.49;102062.23;1708882;84;20924;-76
2022/03/13 08:47:57;;;;;;;4.92;2.85;;;;;;;13.08;21.95;102073.84;1738147;82;21144;-76
2022/03/13 08:50:24;;;;;;;4.00;2.47;;;;;;;13.17;21.47;102079.52;1744427;82;20960;-76
2022/03/13 08:52:51;;;;;;;5.80;2.90;;;;;;;13.26;21.25;102075.12;1744506;81;20961;-76
2022/03/13 08:55:22;;;;;;;3.87;2.70;;;;;;;13.40;21.06;102076.27;1744687;81;20992;-77
2022/03/13 08:57:50;;;;;;;5.58;2.33;;;;;;;13.45;20.91;102075.13;1744601;81;20992;-75
2022/03/13 09:00:18;;;;;;;5.28;3.10;;;;;;;13.56;21.48;102071.97;1744548;82;21131;-75
2022/03/13 09:02:46;;;;;;;9.10;3.25;;;;;;;13.73;20.98;102071.12;1744537;82;20920;-76
2022/03/13 09:05:13;;;;;;;6.92;3.08;;;;;;;14.08;20.95;102077.24;1744826;82;20917;-75
2022/03/13 09:07:40;;;;;;;4.62;2.95;;;;;;;14.21;21.20;102077.95;1744476;81;20933;-76
2022/03/13 09:10:08;;;;;;;2.85;2.58;;;;;;;14.27;20.34;102069.25;1744792;81;20970;-75
2022/03/13 09:12:36;;;;;;;7.87;3.70;;;;;;;14.20;20.30;102074.43;1744638;81;21176;-75
2022/03/13 09:15:04;;;;;;;6.03;3.30;;;;;;;14.15;19.93;102081.73;1744560;80;20921;-76
2022/03/13 09:17:31;;;;;;;6.17;3.70;;;;;;;14.18;19.56;102079.41;1744482;81;20908;-75
2022/03/13 09:19:59;;;;;;;7.50;3.75;;;;;;;14.13;19.22;102077.01;1744571;81;20980;-75
2022/03/13 09:22:30;;;;;;;9.48;6.03;;;;;;;14.08;19.87;102077.72;1744620;81;20979;-75
2022/03/13 09:24:59;;;;;;;12.40;6.62;;;;;;;14.28;19.27;102077.53;1744604;81;21261;-76
2022/03/13 09:27:26;;;;;;;6.83;5.47;;;;;;;14.08;19.58;102079.88;1743904;82;20834;-76
2022/03/13 09:29:57;;;;;;;7.80;4.62;;;;;;;13.82;19.49;102078.56;1744465;81;20928;-76
2022/03/13 09:32:25;;;;;;;8.20;4.95;;;;;;;13.62;19.80;102075.59;1708684;83;20941;-76
2022/03/13 09:34:53;;;;;;;11.95;5.17;;;;;;;13.61;19.41;102075.70;1709012;84;20900;-76
2022/03/13 09:37:21;;;;;;;5.22;3.10;;;;;;;13.45;19.66;102076.45;1708727;82;21821;-74
2022/03/13 09:39:48;;;;;;;7.75;4.62;;;;;;;13.42;19.48;102083.16;1708687;84;20940;-75
2022/03/13 09:42:15;;;;;;;7.28;4.25;;;;;;;13.31;19.49;102079.34;1708925;84;20888;-75
2022/03/13 09:44:42;;;;;;;5.42;3.65;;;;;;;13.09;19.61;102079.02;1708764;84;21011;-76
2022/03/13 09:47:13;;;;;;;3.85;2.72;;;;;;;13.00;20.20;102069.77;1708748;84;20920;-74
2022/03/13 09:49:40;;;;;;;4.03;3.35;;;;;;;12.93;20.62;102073.61;1709038;83;21203;-75
2022/03/13 09:52:08;;;;;;;7.58;3.77;;;;;;;12.94;21.08;102077.97;1708739;84;21495;-74
2022/03/13 09:54:35;;;;;;;6.20;3.62;;;;;;;12.96;20.34;102070.86;1708804;82;21303;-75
2022/03/13 09:57:04;;;;;;;6.85;3.98;;;;;;;12.95;20.64;102073.55;1708944;84;20908;-75
2022/03/13 09:59:32;;;;;;;7.85;4.25;;;;;;;13.01;20.27;102087.76;1709176;84;20959;-76
2022/03/13 10:01:59;;;;;;;7.33;4.40;;;;;;;13.10;20.13;102080.73;1708687;84;21148;-75
2022/03/13 10:04:26;;;;;;;8.15;4.58;;;;;;;13.14;20.58;102080.11;1708712;82;20940;-76
2022/03/13 10:07:10;;;;;;;5.17;3.08;;;;;;;13.39;20.48;102085.96;1708668;84;20888;-76
2022/03/13 10:09:40;;;;;;;4.55;2.30;;;;;;;13.50;19.49;102081.49;1708639;84;20991;-75
2022/03/13 10:12:16;;;;;;;3.70;3.00;;;;;;;13.14;19.44;102090.20;1744593;81;21553;-75
2022/03/13 10:15:05;;;;;;;5.95;3.65;;;;;;;12.81;19.74;102083.41;1744483;81;21127;-76
2022/03/13 10:17:35;;;;;;;6.42;3.45;;;;;;;12.67;20.40;102081.85;1744619;82;21382;-75
2022/03/13 10:20:25;;;;;;;6.28;3.17;;;;;;;12.87;20.43;102089.69;1744500;82;21062;-76
2022/03/13 10:23:04;;;;;;;6.65;3.90;;;;;;;12.89;20.45;102093.11;1744474;80;20862;-75
2022/03/13 10:25:36;;;;;;;5.65;3.80;;;;;;;12.88;20.51;102087.47;1744464;81;20897;-75
2022/03/13 10:28:17;;;;;;;6.08;2.98;;;;;;;12.97;20.34;102091.45;1752611;81;21377;-75
2022/03/13 10:30:48;;;;;;;3.60;3.08;;;;;;;12.86;20.95;102091.48;1757825;80;20888;-75
2022/03/13 10:33:15;;;;;;;8.58;3.17;;;;;;;12.94;20.58;102091.58;1758628;80;20892;-74
2022/03/13 10:35:43;;;;;;;6.10;3.25;;;;;;;12.97;20.44;102088.82;1757867;81;20976;-76
2022/03/13 10:38:23;;;;;;;4.67;2.35;;;;;;;12.85;20.78;102091.56;1758178;81;20928;-75
2022/03/13 10:40:56;;;;;;;5.22;3.05;;;;;;;12.79;20.81;102083.94;1757877;81;21485;-76
2022/03/13 10:43:26;;;;;;;9.98;2.98;;;;;;;12.77;20.98;102086.63;1765932;81;20931;-76
2022/03/13 10:45:54;;;;;;;5.47;2.90;;;;;;;12.63;20.57;102082.00;1757844;81;20936;-75
2022/03/13 10:48:29;;;;;;;3.80;2.65;;;;;;;12.52;21.14;102086.90;1757751;81;20892;-75
2022/03/13 10:50:59;;;;;;;8.00;3.40;;;;;;;12.44;21.25;102095.11;1757918;81;20892;-74
2022/03/13 10:53:30;;;;;;;7.22;2.70;;;;;;;12.21;21.25;102092.66;1720943;83;21239;-74
2022/03/13 10:56:14;;;;;;;4.62;2.70;;;;;;;12.06;21.56;102091.99;1721778;83;20947;-75
2022/03/13 10:58:48;;;;;;;4.90;3.02;;;;;;;11.89;21.38;102094.00;1722012;83;20943;-73
2022/03/13 11:01:16;;;;;;;4.12;2.92;;;;;;;11.90;21.79;102098.36;1720804;82;21381;-75
2022/03/13 11:04:06;;;;;;;4.78;3.12;;;;;;;12.02;22.02;102098.67;1721774;83;20978;-74
2022/03/13 11:06:33;;;;;;;10.23;2.98;;;;;;;12.10;21.66;102100.16;1721735;83;21328;-74
2022/03/13 11:09:02;;;;;;;5.35;2.40;;;;;;;12.04;21.86;102101.25;1721652;83;20879;-73
2022/03/13 11:11:31;;;;;;;5.03;2.65;;;;;;;11.99;21.96;102100.13;1721793;83;20975;-74
2022/03/13 11:14:01;;;;;;;5.03;3.40;;;;;;;11.93;21.89;102099.53;1721793;83;20967;-75
2022/03/13 11:16:31;;;;;;;5.35;2.58;;;;;;;11.77;21.91;102105.86;1722038;83;20994;-74
2022/03/13 11:19:05;;;;;;;4.33;3.15;;;;;;;11.69;21.43;102103.99;1721907;82;21406;-74
2022/03/13 11:21:34;;;;;;;5.15;2.85;;;;;;;11.50;21.64;102101.27;1721703;82;20931;-73
2022/03/13 11:24:02;;;;;;;2.77;2.15;;;;;;;11.38;22.23;102099.53;1721925;82;20903;-74
2022/03/13 11:26:30;;;;;;;5.10;3.35;;;;;;;11.31;22.12;102099.81;1721856;83;20951;-75
2022/03/13 11:29:00;;;;;;;3.67;2.90;;;;;;;11.15;22.64;102099.56;1717324;82;21397;-75
2022/03/13 11:31:33;;;;;;;6.03;3.27;;;;;;;11.23;22.10;102105.81;1716636;83;21257;-74
2022/03/13 11:34:20;;;;;;;4.47;3.00;;;;;;;11.35;22.54;102098.32;1716736;82;21453;-74